Dades meteomassalio
Diari Summary for Setembre 8, 2017 Units:  Metric    English   Both
« Previous Day
Next Day »
Diari Semanal Mensual Anual Personalitzat
  Maxima: Minima: Mijana:
Temperatura: -17.8 °C -12.2 °C -7.2 °C
Rosada: -17.8 °C -17.1 °C -13.2 °C
Humitat: Humidity % 23 % 53 %
Velocitat del vent: 0 km/h 0 km/h 12.6 km/h
Racha vent: 0 km/h - -
Vent:- - SSW
Pressio: 0 hPa 34222.3 hPa -
Pluja: 0 mm    
Historical Graphs
 
 
Tabular Data for Setembre 8, 2017
Time Temperature Dew Point Pressure Wind Wind Speed Wind Gust Humidity Rainfall Rate (Hourly) solar Conditions
-17.8 °C -17.8 °C 0 hPa Calm     Humidity % 0 mm SolarRadiationWatts/m^2 W/m2 Conditions
00:00 -7 °C -12.3 °C 34510.1 hPa SSW 50.7 km/h 50.7 km/h 54 % 0 mm 0.0 W/m2 CLR
00:05 -7 °C -12.3 °C 34510.1 hPa SSW 41.7 km/h 41.7 km/h 54 % 0 mm 0.0 W/m2 CLR
00:10 -7 °C -12.3 °C 34510.1 hPa SSW 49.2 km/h 49.2 km/h 54 % 0 mm 0.0 W/m2 CLR
00:15 -7 °C -12.3 °C 34510.1 hPa SW 44.7 km/h 44.7 km/h 54 % 0 mm 0.0 W/m2 CLR
00:20 -7 °C -12.3 °C 34510.1 hPa SSW 44.1 km/h 44.1 km/h 54 % 0 mm 0.0 W/m2 CLR
00:25 -7 °C -12.3 °C 34510.1 hPa SSW 53.6 km/h 53.6 km/h 54 % 0 mm 0.0 W/m2 CLR
00:30 -7 °C -12.3 °C 34496.6 hPa SSW 44.7 km/h 44.7 km/h 54 % 0 mm 0.0 W/m2 CLR
00:35 -7 °C -12.1 °C 34496.6 hPa SSW 62.6 km/h 62.6 km/h 55 % 0 mm 0.0 W/m2 CLR
00:40 -7 °C -12.1 °C 34496.6 hPa South 59.5 km/h 59.5 km/h 55 % 0 mm 0.0 W/m2 CLR
00:45 -7.3 °C -12.4 °C 34496.6 hPa SSW 50.7 km/h 50.7 km/h 55 % 0 mm 0.0 W/m2 CLR
00:50 -7.3 °C -12.3 °C 34496.6 hPa SSW 53.6 km/h 53.6 km/h 56 % 0 mm 0.0 W/m2 CLR
00:55 -7.3 °C -12.3 °C 34496.6 hPa SSW 56.6 km/h 56.6 km/h 56 % 0 mm 0.0 W/m2 CLR
01:00 -7.3 °C -12.3 °C 34496.6 hPa SW 50.7 km/h 50.7 km/h 56 % 0 mm 0.0 W/m2 CLR
01:05 -7.3 °C -12.3 °C 34496.6 hPa SW 54.4 km/h 54.4 km/h 56 % 0 mm 0.0 W/m2 CLR
01:10 -7.3 °C -12.1 °C 34496.6 hPa SW 71.5 km/h 71.5 km/h 57 % 0 mm 0.0 W/m2 CLR
01:15 -7.3 °C -12 °C 34496.6 hPa SSW 50.7 km/h 50.7 km/h 58 % 0 mm 0.0 W/m2 CLR
01:20 -7.6 °C -12.3 °C 34486.4 hPa SSW 68.6 km/h 68.6 km/h 58 % 0 mm 0.0 W/m2 CLR
01:25 -7.6 °C -12.3 °C 34496.6 hPa SW 57 km/h 57 km/h 58 % 0 mm 0.0 W/m2 CLR
01:30 -7.6 °C -12.3 °C 34496.6 hPa SSW 56.6 km/h 56.6 km/h 58 % 0 mm 0.0 W/m2 CLR
01:35 -7.6 °C -12.3 °C 34496.6 hPa SSW 50.7 km/h 50.7 km/h 58 % 0 mm 0.0 W/m2 CLR
01:40 -7.6 °C -12.1 °C 34496.6 hPa SSW 38.8 km/h 38.8 km/h 59 % 0 mm 0.0 W/m2 CLR
01:46 -7.6 °C -12.1 °C 34496.6 hPa SSW 44.7 km/h 44.7 km/h 59 % 0 mm 0.0 W/m2 CLR
01:51 -7.6 °C -12 °C 34496.6 hPa SW 53.6 km/h 53.6 km/h 60 % 0 mm 0.0 W/m2 CLR
01:56 -7.9 °C -12.3 °C 34496.6 hPa SW 59.5 km/h 59.5 km/h 60 % 0 mm 0.0 W/m2 CLR
02:01 -7.9 °C -12.3 °C 34496.6 hPa SSW 50.7 km/h 50.7 km/h 60 % 0 mm 0.0 W/m2 CLR
02:11 -7.9 °C -12.1 °C 34496.6 hPa SW 44.7 km/h 44.7 km/h 61 % 0 mm 0.0 W/m2 CLR
02:16 -7.9 °C -12.1 °C 34496.6 hPa SSW 46.7 km/h 46.7 km/h 61 % 0 mm 0.0 W/m2 CLR
02:21 -8.2 °C -12.4 °C 34496.6 hPa SW 50.7 km/h 50.7 km/h 61 % 0 mm 0.0 W/m2 CLR
02:26 -8.2 °C -12.4 °C 34496.6 hPa SW 56.6 km/h 56.6 km/h 61 % 0 mm 0.0 W/m2 CLR
02:31 -8.2 °C -12.4 °C 34496.6 hPa SW 56.6 km/h 56.6 km/h 61 % 0 mm 0.0 W/m2 CLR
02:36 -7.9 °C -12.1 °C 34496.6 hPa SW 65.5 km/h 65.5 km/h 61 % 0 mm 0.0 W/m2 CLR
02:41 -7.9 °C -12.1 °C 34496.6 hPa SSW 47.6 km/h 47.6 km/h 61 % 0 mm 0.0 W/m2 CLR
02:46 -8.2 °C -12.4 °C 34496.6 hPa SW 36.2 km/h 36.2 km/h 61 % 0 mm 0.0 W/m2 CLR
02:51 -8.2 °C -12.3 °C 34496.6 hPa SW 38.8 km/h 38.8 km/h 62 % 0 mm 0.0 W/m2 CLR
02:56 -8.2 °C -12.3 °C 34496.6 hPa South 29.8 km/h 29.8 km/h 62 % 0 mm 0.0 W/m2 CLR
03:01 -8.2 °C -12.3 °C 34496.6 hPa SSW 26.9 km/h 26.9 km/h 62 % 0 mm 0.0 W/m2 CLR
03:06 -8.2 °C -12.3 °C 34496.6 hPa South 6 km/h 8.2 km/h 62 % 0 mm 0.0 W/m2 CLR
03:11 -8.5 °C -12.6 °C 34496.6 hPa South 17.9 km/h 17.9 km/h 62 % 0 mm 0.0 W/m2 CLR
03:16 -8.2 °C -12.3 °C 34510.1 hPa SW 20.8 km/h 20.8 km/h 62 % 0 mm 0.0 W/m2 CLR
03:21 -8.5 °C -12.4 °C 34510.1 hPa SSW 17.9 km/h 17.9 km/h 63 % 0 mm 0.0 W/m2 CLR
03:26 -8.5 °C -12.4 °C 34510.1 hPa SW 29.8 km/h 29.8 km/h 63 % 0 mm 0.0 W/m2 CLR
03:31 -8.5 °C -12.4 °C 34510.1 hPa South 20.9 km/h 20.9 km/h 63 % 0 mm 0.0 W/m2 CLR
03:36 -8.5 °C -12.4 °C 34510.1 hPa SSW 23.8 km/h 23.8 km/h 63 % 0 mm 0.0 W/m2 CLR
03:41 -8.8 °C -12.7 °C 34510.1 hPa SSW 11.9 km/h 11.9 km/h 63 % 0 mm 0.0 W/m2 CLR
03:46 -8.8 °C -12.7 °C 34510.1 hPa SSW 26.9 km/h 26.9 km/h 63 % 0 mm 0.0 W/m2 CLR
03:51 -8.8 °C -12.7 °C 34510.1 hPa SSW 20.9 km/h 20.9 km/h 63 % 0 mm 0.0 W/m2 CLR
03:56 -8.8 °C -12.7 °C 34496.6 hPa SW 20.9 km/h 20.9 km/h 63 % 0 mm 0.0 W/m2 CLR
04:01 -9.1 °C -12.9 °C 34496.6 hPa SW 35.7 km/h 35.7 km/h 64 % 0 mm 0.0 W/m2 CLR
04:07 -8.8 °C -12.6 °C 34496.6 hPa WSW 20.9 km/h 20.9 km/h 64 % 0 mm 0.0 W/m2 CLR
04:11 -8.8 °C -12.6 °C 34496.6 hPa Calm     64 % 0 mm 0.0 W/m2 CLR
04:12 -8.8 °C -12.6 °C 34496.6 hPa Calm     64 % 0 mm 0.0 W/m2 CLR
04:17 -9.1 °C -12.9 °C 34496.6 hPa Calm     64 % 0 mm 0.0 W/m2 CLR
04:22 -9.4 °C -13.2 °C 34496.6 hPa Calm     64 % 0 mm 0.0 W/m2 CLR
04:27 -9.8 °C -13.2 °C 34496.6 hPa Calm     66 % 0 mm 0.0 W/m2 CLR
04:32 -10.1 °C -13.6 °C 34496.6 hPa Calm     66 % 0 mm 0.0 W/m2 CLR
04:37 -10.4 °C -13.8 °C 34496.6 hPa Calm     66 % 0 mm 0.0 W/m2 CLR
04:42 -10.4 °C -13.6 °C 34496.6 hPa Calm     68 % 0 mm 0.0 W/m2 CLR
04:47 -10.7 °C -13.8 °C 34496.6 hPa Calm     69 % 0 mm 0.0 W/m2 CLR
04:52 -10.7 °C -13.9 °C 34496.6 hPa SW 32.8 km/h 32.8 km/h 68 % 0 mm 0.0 W/m2 CLR
04:57 -11 °C -14.3 °C 34496.6 hPa SSW 15 km/h 15 km/h 67 % 0 mm 0.0 W/m2 CLR
05:02 -11 °C -14.3 °C 34496.6 hPa Calm     67 % 0 mm 0.0 W/m2 CLR
05:07 -11 °C -14.2 °C 34486.4 hPa South 9 km/h 9 km/h 68 % 0 mm 0.0 W/m2 CLR
05:12 -10.7 °C -13.9 °C 34486.4 hPa Calm     68 % 0 mm 0.0 W/m2 CLR
05:18 -10.7 °C -13.8 °C 34486.4 hPa South 9 km/h 9 km/h 69 % 0 mm 0.0 W/m2 CLR
05:23 -11 °C -14.1 °C 34486.4 hPa SSE 11.9 km/h 11.9 km/h 69 % 0 mm 0.0 W/m2 CLR
05:25 -11 °C -14.1 °C 34486.4 hPa SSE 12.9 km/h 12.9 km/h 69 % 0 mm 0.0 W/m2 CLR
05:29 -11 °C -13.9 °C 34486.4 hPa SSW 12.9 km/h 12.9 km/h 70 % 0 mm 0.0 W/m2 CLR
05:30 -11 °C -13.9 °C 34486.4 hPa South 18.2 km/h 18.2 km/h 70 % 0 mm 0.0 W/m2 CLR
05:35 -11 °C -13.9 °C 34486.4 hPa South 17.9 km/h 17.9 km/h 70 % 0 mm 0.0 W/m2 CLR
05:40 -11 °C -13.9 °C 34486.4 hPa South 15 km/h 15 km/h 70 % 0 mm 0.0 W/m2 CLR
05:45 -11 °C -13.9 °C 34486.4 hPa SSE 15 km/h 15 km/h 70 % 0 mm 0.0 W/m2 CLR
05:50 -11 °C -13.8 °C 34486.4 hPa SSE 9 km/h 9 km/h 71 % 0 mm 0.0 W/m2 CLR
05:55 -11 °C -13.8 °C 34486.4 hPa South 15 km/h 15 km/h 71 % 0 mm 0.0 W/m2 CLR
06:00 -11 °C -13.8 °C 34486.4 hPa SSE 15.6 km/h 15.6 km/h 71 % 0 mm 0.0 W/m2 CLR
06:05 -11 °C -13.8 °C 34486.4 hPa South 11.9 km/h 11.9 km/h 71 % 0 mm 0.0 W/m2 CLR
06:10 -10.7 °C -13.4 °C 34486.4 hPa SSE 23.8 km/h 23.8 km/h 72 % 0 mm 0.0 W/m2 CLR
06:15 -10.7 °C -13.3 °C 34486.4 hPa SSE 18.2 km/h 18.2 km/h 73 % 0 mm 0.0 W/m2 CLR
06:20 -10.7 °C -13.2 °C 34486.4 hPa SSE 17.9 km/h 17.9 km/h 74 % 0 mm 0.0 W/m2 CLR
06:25 -11 °C -13.5 °C 34486.4 hPa Calm     74 % 0 mm 0.0 W/m2 CLR
06:26 -11 °C -13.5 °C 34486.4 hPa Calm     74 % 0 mm 0.0 W/m2 CLR
06:31 -11 °C -13.3 °C 34486.4 hPa Calm     76 % 0 mm 0.0 W/m2 CLR
06:36 -11.3 °C -13.6 °C 34486.4 hPa Calm     76 % 0 mm 0.0 W/m2 CLR
06:41 -11.3 °C -13.4 °C 34486.4 hPa Calm     77 % 0 mm 0.0 W/m2 CLR
06:46 -11.6 °C -13.7 °C 34486.4 hPa Calm     78 % 0 mm 0.0 W/m2 CLR
06:51 -11.6 °C -13.7 °C 34486.4 hPa Calm     78 % 0 mm 0.0 W/m2 CLR
06:56 -11.6 °C -13.7 °C 34486.4 hPa Calm     78 % 0 mm 0.0 W/m2 CLR
07:01 -11.6 °C -13.6 °C 34486.4 hPa Calm     79 % 0 mm 0.0 W/m2 CLR
07:06 -11.6 °C -13.6 °C 34476.3 hPa Calm     79 % 0 mm 0.0 W/m2 CLR
07:11 -11.9 °C -13.8 °C 34486.4 hPa Calm     79 % 0 mm 0.0 W/m2 CLR
07:16 -11.9 °C -13.9 °C 34476.3 hPa Calm     78 % 0 mm 0.0 W/m2 CLR
07:21 -12.2 °C -14.3 °C 34476.3 hPa Calm     77 % 0 mm 0.0 W/m2 CLR
07:26 -12.2 °C -14.5 °C 34486.4 hPa Calm     76 % 0 mm 0.0 W/m2 OVC
07:31 -11.9 °C -14.2 °C 34486.4 hPa Calm     76 % 0 mm 0.0 W/m2 OVC
07:36 -11.9 °C -14.1 °C 34476.3 hPa Calm     77 % 0 mm 5.0 W/m2 OVC
07:41 -11.9 °C -14.2 °C 34486.4 hPa Calm     76 % 0 mm 11.0 W/m2 BKN
07:46 -11.9 °C -14.2 °C 34486.4 hPa Calm     76 % 0 mm 16.0 W/m2 BKN
07:51 -11.9 °C -14.2 °C 34476.3 hPa Calm     76 % 0 mm 21.0 W/m2 BKN
07:56 -11.9 °C -14.2 °C 34486.4 hPa Calm     76 % 0 mm 28.0 W/m2 BKN
08:01 -11.9 °C -14.2 °C 34476.3 hPa Calm     76 % 0 mm 35.0 W/m2 BKN
08:06 -11.9 °C -14.2 °C 34476.3 hPa Calm     76 % 0 mm 42.0 W/m2 BKN
08:11 -11.9 °C -14.2 °C 34476.3 hPa Calm     76 % 0 mm 47.0 W/m2 SCT
08:16 -11.9 °C -14.3 °C 34476.3 hPa Calm     75 % 0 mm 56.0 W/m2 SCT
08:21 -11.6 °C -14 °C 34476.3 hPa Calm     75 % 0 mm 69.0 W/m2 FEW
08:26 -11.3 °C -13.7 °C 34476.3 hPa Calm     75 % 0 mm 77.0 W/m2 FEW
08:31 -11 °C -13.4 °C 34476.3 hPa Calm     75 % 0 mm 86.0 W/m2 CLR
08:36 -11 °C -13.5 °C 34486.4 hPa Calm     74 % 0 mm 93.0 W/m2 CLR
08:41 -10.7 °C -13.2 °C 34486.4 hPa South 15 km/h 15 km/h 74 % 0 mm 79.0 W/m2 FEW
08:46 -10.4 °C -12.9 °C 34486.4 hPa SSW 11.9 km/h 11.9 km/h 74 % 0 mm 83.0 W/m2 FEW
08:51 -10.4 °C -13 °C 34486.4 hPa South 11.9 km/h 11.9 km/h 73 % 0 mm 146.0 W/m2 CLR
09:01 -9.8 °C -12.4 °C 34486.4 hPa South 9 km/h 9 km/h 73 % 0 mm 178.0 W/m2 CLR
09:06 -9.8 °C -12.6 °C 34486.4 hPa South 15 km/h 15 km/h 72 % 0 mm 186.0 W/m2 CLR
09:11 -9.4 °C -12.3 °C 34486.4 hPa South 9 km/h 9 km/h 71 % 0 mm 199.0 W/m2 CLR
09:16 -9.4 °C -12.3 °C 34486.4 hPa South 15 km/h 15 km/h 71 % 0 mm 213.0 W/m2 CLR
09:21 -9.1 °C -12.2 °C 34486.4 hPa South 9 km/h 9 km/h 70 % 0 mm 230.0 W/m2 CLR
09:26 -9.1 °C -12.2 °C 34486.4 hPa South 9 km/h 9 km/h 70 % 0 mm 248.0 W/m2 CLR
09:31 -8.8 °C -11.9 °C 34486.4 hPa South 9 km/h 9 km/h 70 % 0 mm 267.0 W/m2 CLR
09:36 -8.8 °C -12.1 °C 34486.4 hPa South 11.9 km/h 11.9 km/h 68 % 0 mm 276.0 W/m2 CLR
09:41 -8.8 °C -12.2 °C 34486.4 hPa SW 15 km/h 15 km/h 67 % 0 mm 299.0 W/m2 CLR
09:46 -8.5 °C -12.1 °C 34486.4 hPa SSW 17.9 km/h 17.9 km/h 66 % 0 mm 320.0 W/m2 CLR
09:51 -8.5 °C -12.2 °C 34486.4 hPa SW 9 km/h 9 km/h 65 % 0 mm 327.0 W/m2 CLR
09:52 -8.5 °C -12.2 °C 34486.4 hPa SW 9 km/h 9 km/h 65 % 0 mm 327.0 W/m2 CLR
09:57 -8.2 °C -12.1 °C 34486.4 hPa South 17.9 km/h 17.9 km/h 64 % 0 mm 346.0 W/m2 CLR
10:02 -8.2 °C -12.2 °C 34486.4 hPa South 17.9 km/h 17.9 km/h 63 % 0 mm 360.0 W/m2 CLR
10:07 -8.2 °C -12.1 °C 34486.4 hPa SSW 11.9 km/h 11.9 km/h 64 % 0 mm 373.0 W/m2 CLR
10:12 -7.9 °C -11.9 °C 34486.4 hPa SSE 20.9 km/h 20.9 km/h 63 % 0 mm 385.0 W/m2 CLR
10:17 -7.9 °C -12 °C 34486.4 hPa SSW 15 km/h 15 km/h 62 % 0 mm 404.0 W/m2 CLR
10:22 -7.9 °C -12.1 °C 34486.4 hPa South 9 km/h 9 km/h 61 % 0 mm 424.0 W/m2 CLR
10:27 -7.9 °C -12.3 °C 34486.4 hPa SW 11.9 km/h 11.9 km/h 60 % 0 mm 446.0 W/m2 CLR
10:32 -7.9 °C -12.3 °C 34486.4 hPa SW 20.9 km/h 20.9 km/h 60 % 0 mm 454.0 W/m2 CLR
10:37 -7.6 °C -12 °C 34486.4 hPa SW 26.9 km/h 26.9 km/h 60 % 0 mm 473.0 W/m2 CLR
10:42 -7.6 °C -12 °C 34486.4 hPa SW 20.9 km/h 20.9 km/h 60 % 0 mm 485.0 W/m2 CLR
10:47 -7.3 °C -11.8 °C 34486.4 hPa WSW 17.9 km/h 17.9 km/h 59 % 0 mm 497.0 W/m2 CLR
10:52 -7.3 °C -11.8 °C 34486.4 hPa SW 12.9 km/h 13.2 km/h 59 % 0 mm 512.0 W/m2 CLR
10:57 -7.3 °C -12 °C 34486.4 hPa WSW 20.8 km/h 20.8 km/h 58 % 0 mm 519.0 W/m2 CLR
11:02 -7.3 °C -12.1 °C 34486.4 hPa WSW 6 km/h 6 km/h 57 % 0 mm 533.0 W/m2 CLR
11:07 -7.3 °C -12.3 °C 34486.4 hPa Calm     56 % 0 mm 541.0 W/m2 CLR
11:12 -7.3 °C -12.3 °C 34476.3 hPa SW 12.9 km/h 12.9 km/h 56 % 0 mm 554.0 W/m2 CLR
11:17 -7 °C -12.1 °C 34476.3 hPa WSW 17.9 km/h 17.9 km/h 55 % 0 mm 566.0 W/m2 CLR
11:22 -7 °C -12.1 °C 34476.3 hPa West 6 km/h 6 km/h 55 % 0 mm 577.0 W/m2 CLR
11:27 -6.7 °C -12 °C 34476.3 hPa Calm     54 % 0 mm 589.0 W/m2 CLR
11:32 -6.7 °C -11.8 °C 34476.3 hPa WSW 18.2 km/h 18.2 km/h 55 % 0 mm 599.0 W/m2 CLR
11:37 -6.3 °C -11.7 °C 34476.3 hPa WSW 18.2 km/h 18.2 km/h 54 % 0 mm 610.0 W/m2 CLR
11:42 -6.3 °C -11.8 °C 34476.3 hPa Calm     53 % 0 mm 622.0 W/m2 CLR
11:47 -6.1 °C -11.6 °C 34476.3 hPa West 15 km/h 15 km/h 53 % 0 mm 631.0 W/m2 CLR
11:52 -6.1 °C -11.7 °C 34476.3 hPa Calm     52 % 0 mm 640.0 W/m2 CLR
11:57 -6.1 °C -11.9 °C 34476.3 hPa WSW 10.3 km/h 10.3 km/h 51 % 0 mm 647.0 W/m2 CLR
12:02 -5.7 °C -11.6 °C 34462.7 hPa Calm     51 % 0 mm 654.0 W/m2 CLR
12:07 -5.7 °C -11.6 °C 34462.7 hPa SW 15 km/h 15 km/h 51 % 0 mm 663.0 W/m2 CLR
12:12 -5.7 °C -11.9 °C 34462.7 hPa South 6 km/h 6 km/h 49 % 0 mm 671.0 W/m2 CLR
12:17 -5.7 °C -11.6 °C 34462.7 hPa Calm     51 % 0 mm 684.0 W/m2 CLR
12:22 -5.7 °C -11.8 °C 34452.6 hPa WSW 15 km/h 15 km/h 50 % 0 mm 693.0 W/m2 CLR
12:27 -5.4 °C -11.8 °C 34452.6 hPa Calm     48 % 0 mm 701.0 W/m2 CLR
12:32 -5.4 °C -11.8 °C 34452.6 hPa WSW 10.3 km/h 10.3 km/h 48 % 0 mm 708.0 W/m2 CLR
12:37 -5.1 °C -11.6 °C 34452.6 hPa Calm     48 % 0 mm 715.0 W/m2 CLR
12:42 -5.4 °C -11.8 °C 34452.6 hPa WSW 17.9 km/h 17.9 km/h 48 % 0 mm 719.0 W/m2 CLR
12:47 -5.4 °C -12 °C 34442.4 hPa NW 6 km/h 6 km/h 47 % 0 mm 722.0 W/m2 CLR
12:52 -5.4 °C -12 °C 34442.4 hPa NW 9 km/h 9 km/h 47 % 0 mm 728.0 W/m2 CLR
12:57 -5.1 °C -11.9 °C 34442.4 hPa WNW 6 km/h 6 km/h 46 % 0 mm 740.0 W/m2 CLR
13:02 -5.1 °C -11.9 °C 34428.8 hPa Calm     46 % 0 mm 749.0 W/m2 CLR
13:07 -5.1 °C -11.9 °C 34428.8 hPa West 15 km/h 15 km/h 46 % 0 mm 756.0 W/m2 CLR
13:12 -5.1 °C -12.3 °C 34428.8 hPa West 7.7 km/h 7.7 km/h 44 % 0 mm 756.0 W/m2 CLR
13:17 -5.1 °C -12.3 °C 34428.8 hPa Calm     44 % 0 mm 761.0 W/m2 CLR
13:22 -4.8 °C -11.8 °C 34428.8 hPa West 15 km/h 15 km/h 45 % 0 mm 766.0 W/m2 CLR
13:27 -4.5 °C -12.1 °C 34428.8 hPa WNW 20.9 km/h 20.9 km/h 42 % 0 mm 770.0 W/m2 CLR
13:32 -4.5 °C -12.1 °C 34418.7 hPa NW 15 km/h 15 km/h 42 % 0 mm 772.0 W/m2 CLR
13:37 -4.5 °C -12.1 °C 34418.7 hPa West 17.9 km/h 17.9 km/h 42 % 0 mm 773.0 W/m2 CLR
13:42 -4.5 °C -12.3 °C 34418.7 hPa Calm     41 % 0 mm 784.0 W/m2 CLR
13:47 -4.5 °C -12.3 °C 34418.7 hPa West 15 km/h 15 km/h 41 % 0 mm 784.0 W/m2 CLR
13:52 -4.5 °C -12.6 °C 34418.7 hPa WNW 11.9 km/h 11.9 km/h 40 % 0 mm 788.0 W/m2 CLR
13:57 -4.5 °C -12.7 °C 34418.7 hPa WNW 9 km/h 9 km/h 39 % 0 mm 788.0 W/m2 CLR
14:02 -4.2 °C -12.7 °C 34418.7 hPa Calm     38 % 0 mm 791.0 W/m2 CLR
14:07 -3.9 °C -12.4 °C 34405.1 hPa WNW 6 km/h 6 km/h 38 % 0 mm 791.0 W/m2 CLR
14:12 -4.2 °C -12.9 °C 34405.1 hPa NW 11.9 km/h 11.9 km/h 37 % 0 mm 786.0 W/m2 CLR
14:17 -4.2 °C -13.3 °C 34405.1 hPa WNW 15 km/h 15 km/h 35 % 0 mm 786.0 W/m2 CLR
14:22 -3.9 °C -13.1 °C 34395 hPa Calm     35 % 0 mm 784.0 W/m2 CLR
14:27 -3.9 °C -13.3 °C 34395 hPa NW 10.3 km/h 10.3 km/h 34 % 0 mm 782.0 W/m2 CLR
14:32 -3.9 °C -13.3 °C 34395 hPa NW 15 km/h 15 km/h 34 % 0 mm 777.0 W/m2 CLR
14:37 -3.6 °C -13.6 °C 34395 hPa WSW 3.1 km/h   32 % 0 mm 775.0 W/m2 CLR
14:42 -3.6 °C -13.8 °C 34395 hPa Calm     31 % 0 mm 772.0 W/m2 CLR
14:47 -3.3 °C -13.5 °C 34384.8 hPa NNW 6 km/h   31 % 0 mm 772.0 W/m2 CLR
14:52 -3.3 °C -13.5 °C 34384.8 hPa Calm     31 % 0 mm 765.0 W/m2 CLR
14:57 -3.6 °C -13.3 °C 34384.8 hPa Calm     33 % 0 mm 759.0 W/m2 CLR
15:02 -3.6 °C -13.6 °C 34384.8 hPa North 6 km/h 6 km/h 32 % 0 mm 752.0 W/m2 CLR
15:07 -3.3 °C -13.3 °C 34371.3 hPa NW 11.9 km/h 11.9 km/h 32 % 0 mm 747.0 W/m2 CLR
15:12 -3.3 °C -13.3 °C 34371.3 hPa North 20.9 km/h 20.9 km/h 32 % 0 mm 742.0 W/m2 CLR
15:17 -3.6 °C -13.6 °C 34371.3 hPa North 6 km/h 6 km/h 32 % 0 mm 735.0 W/m2 CLR
15:22 -3.6 °C -13.8 °C 34371.3 hPa North 9 km/h 9 km/h 31 % 0 mm 726.0 W/m2 CLR
15:27 -3.6 °C -14.1 °C 34361.1 hPa Calm     30 % 0 mm 721.0 W/m2 CLR
15:32 -2.9 °C -13.3 °C 34361.1 hPa NNE 12.9 km/h 12.9 km/h 31 % 0 mm 712.0 W/m2 CLR
15:38 -3.3 °C -13.8 °C 34361.1 hPa NNW 9 km/h 9 km/h 30 % 0 mm 708.0 W/m2 CLR
15:42 -3.3 °C -13.8 °C 34361.1 hPa NW 10.3 km/h 10.3 km/h 30 % 0 mm 701.0 W/m2 CLR
15:48 -3.3 °C -14.1 °C 34347.6 hPa NNW 9 km/h 9 km/h 29 % 0 mm 687.0 W/m2 CLR
15:53 -2.9 °C -14.1 °C 34347.6 hPa NE 6 km/h 6 km/h 28 % 0 mm 677.0 W/m2 CLR
15:58 -2.9 °C -13.8 °C 34347.6 hPa NNW 23.8 km/h 23.8 km/h 29 % 0 mm 670.0 W/m2 CLR
16:03 -2.9 °C -14.1 °C 34347.6 hPa NNE 9 km/h 9 km/h 28 % 0 mm 663.0 W/m2 CLR
16:08 -2.9 °C -14.1 °C 34337.4 hPa NW 9 km/h 9 km/h 28 % 0 mm 652.0 W/m2 CLR
16:13 -2.9 °C -14.4 °C 34337.4 hPa NE 9 km/h   27 % 0 mm 640.0 W/m2 CLR
16:18 -2.9 °C -14.1 °C 34337.4 hPa NNE 9 km/h 9 km/h 28 % 0 mm 631.0 W/m2 CLR
16:23 -2.7 °C -13.8 °C 34327.3 hPa NNW 9 km/h 9 km/h 28 % 0 mm 621.0 W/m2 CLR
16:28 -2.7 °C -13.8 °C 34327.3 hPa NNE 10.3 km/h 10.3 km/h 28 % 0 mm 610.0 W/m2 CLR
16:33 -2.7 °C -14.1 °C 34327.3 hPa North 7.7 km/h 7.7 km/h 27 % 0 mm 598.0 W/m2 CLR
16:38 -2.7 °C -14.1 °C 34327.3 hPa North 9 km/h 9 km/h 27 % 0 mm 585.0 W/m2 CLR
16:43 -2.3 °C -13.8 °C 34313.7 hPa NNE 9 km/h 9 km/h 27 % 0 mm 575.0 W/m2 CLR
16:48 -2.7 °C -14.4 °C 34313.7 hPa NE 7.7 km/h 7.7 km/h 26 % 0 mm 563.0 W/m2 CLR
16:53 -2.3 °C -14.2 °C 34313.7 hPa NE 9 km/h 9 km/h 26 % 0 mm 545.0 W/m2 CLR
16:58 -2.3 °C -14.5 °C 34303.6 hPa Calm     25 % 0 mm 534.0 W/m2 CLR
17:03 -2.3 °C -14.2 °C 34303.6 hPa Calm     26 % 0 mm 517.0 W/m2 CLR
17:08 -2.3 °C -14.5 °C 34303.6 hPa North 3.1 km/h   25 % 0 mm 506.0 W/m2 CLR
17:13 -2.3 °C -14.2 °C 34303.6 hPa Calm     26 % 0 mm 490.0 W/m2 CLR
17:18 -2.3 °C -14.2 °C 34303.6 hPa North 9 km/h 9 km/h 26 % 0 mm 480.0 W/m2 CLR
17:23 -2.3 °C -14.2 °C 34303.6 hPa Calm     26 % 0 mm 462.0 W/m2 CLR
17:28 -2.3 °C -14.2 °C 34293.4 hPa Calm     26 % 0 mm 448.0 W/m2 CLR
17:33 -2.3 °C -14.5 °C 34293.4 hPa North 10.3 km/h 10.3 km/h 25 % 0 mm 431.0 W/m2 CLR
17:38 -2.3 °C -14.8 °C 34293.4 hPa Calm     24 % 0 mm 420.0 W/m2 CLR
17:43 -2.3 °C -14.5 °C 34293.4 hPa Calm     25 % 0 mm 404.0 W/m2 CLR
17:48 -2.1 °C -14.2 °C 34279.9 hPa Calm     25 % 0 mm 387.0 W/m2 CLR
17:53 -2.1 °C -13.9 °C 34279.9 hPa Calm     26 % 0 mm 367.0 W/m2 CLR
17:58 -2.3 °C -14.5 °C 34279.9 hPa Calm     25 % 0 mm 352.0 W/m2 CLR
18:03 -2.1 °C -14.2 °C 34279.9 hPa Calm     25 % 0 mm 334.0 W/m2 CLR
18:08 -2.3 °C -14.5 °C 34279.9 hPa Calm     25 % 0 mm 320.0 W/m2 CLR
18:13 -2.3 °C -14.5 °C 34279.9 hPa Calm     25 % 0 mm 306.0 W/m2 CLR
18:18 -2.7 °C -15.1 °C 34279.9 hPa ENE 11.9 km/h 11.9 km/h 24 % 0 mm 294.0 W/m2 CLR
18:23 -2.7 °C -15.1 °C 34279.9 hPa Calm     24 % 0 mm 272.0 W/m2 CLR
18:27 -2.7 °C -15.1 °C 34269.7 hPa ENE 2.6 km/h 2.6 km/h 24 % 0 mm 264.0 W/m2 CLR
18:32 -2.7 °C -15.1 °C 34269.7 hPa NNE 10.3 km/h 10.3 km/h 24 % 0 mm 251.0 W/m2 CLR
18:37 -2.9 °C -15.3 °C 34269.7 hPa Calm     24 % 0 mm 232.0 W/m2 CLR
18:42 -2.9 °C -15 °C 34269.7 hPa Calm     25 % 0 mm 216.0 W/m2 CLR
18:47 -2.9 °C -15.3 °C 34269.7 hPa Calm     24 % 0 mm 202.0 W/m2 CLR
18:52 -3.3 °C -15.9 °C 34256.2 hPa Calm     23 % 0 mm 185.0 W/m2 CLR
18:57 -3.6 °C -16.2 °C 34256.2 hPa Calm     23 % 0 mm 171.0 W/m2 CLR
19:02 -3.6 °C -15.8 °C 34256.2 hPa Calm     24 % 0 mm 156.0 W/m2 CLR
19:07 -3.9 °C -16.1 °C 34256.2 hPa Calm     24 % 0 mm 141.0 W/m2 CLR
19:12 -4.2 °C -16.3 °C 34256.2 hPa Calm     24 % 0 mm 127.0 W/m2 CLR
19:18 -4.5 °C -16.6 °C 34256.2 hPa Calm     24 % 0 mm 113.0 W/m2 CLR
19:23 -4.5 °C -16.3 °C 34256.2 hPa Calm     25 % 0 mm 100.0 W/m2 CLR
19:28 -4.8 °C -16.9 °C 34256.2 hPa Calm     24 % 0 mm 88.0 W/m2 CLR
19:33 -5.1 °C -17.1 °C 34246 hPa North 3.1 km/h   24 % 0 mm 74.0 W/m2 FEW
19:38 -5.4 °C -16.5 °C 34246 hPa NNE 9 km/h 9 km/h 27 % 0 mm 56.0 W/m2 SCT
19:43 -5.4 °C -15.9 °C 34246 hPa NE 11.9 km/h 11.9 km/h 29 % 0 mm 49.0 W/m2 SCT
19:48 -5.7 °C -15.9 °C 34246 hPa NE 9 km/h 9 km/h 30 % 0 mm 42.0 W/m2 BKN
19:53 -5.7 °C -15.7 °C 34246 hPa NE 2.6 km/h   31 % 0 mm 35.0 W/m2 BKN
19:58 -6.1 °C -15.4 °C 34246 hPa ENE 6 km/h 6 km/h 33 % 0 mm 26.0 W/m2 BKN
20:03 -6.3 °C -15.5 °C 34246 hPa NE 2.6 km/h 5 km/h 34 % 0 mm 21.0 W/m2 BKN
20:08 -6.3 °C -14.8 °C 34246 hPa ENE 6 km/h 6 km/h 37 % 0 mm 16.0 W/m2 BKN
20:13 -6.7 °C -14.9 °C 34246 hPa East 6 km/h 6 km/h 38 % 0 mm 11.0 W/m2 BKN
20:18 -6.7 °C -14.7 °C 34246 hPa Calm     39 % 0 mm 7.0 W/m2 BKN
20:23 -7 °C -14.7 °C 34246 hPa East 10.3 km/h 10.3 km/h 40 % 0 mm 0.0 W/m2 OVC
20:28 -7 °C -14.6 °C 34235.8 hPa ENE 9 km/h 9 km/h 41 % 0 mm 0.0 W/m2 OVC
20:33 -7 °C -14.3 °C 34235.8 hPa Calm     42 % 0 mm 0.0 W/m2 CLR
20:38 -7.3 °C -14.4 °C 34235.8 hPa East 15 km/h 15 km/h 43 % 0 mm 0.0 W/m2 CLR
20:43 -7.3 °C -13.9 °C 34235.8 hPa Calm     46 % 0 mm 0.0 W/m2 CLR
20:48 -7.3 °C -13.9 °C 34235.8 hPa Calm     46 % 0 mm 0.0 W/m2 CLR
20:53 -7.3 °C -13.9 °C 34235.8 hPa ESE 3.1 km/h   46 % 0 mm 0.0 W/m2 CLR
20:58 -7.3 °C -13.2 °C 34235.8 hPa East 23.8 km/h 23.8 km/h 50 % 0 mm 0.0 W/m2 CLR
21:03 -7.3 °C -13.1 °C 34235.8 hPa ENE 11.9 km/h 11.9 km/h 51 % 0 mm 0.0 W/m2 CLR
21:08 -7.3 °C -12.9 °C 34235.8 hPa East 20.8 km/h 20.8 km/h 52 % 0 mm 0.0 W/m2 CLR
21:13 -7.3 °C -12.6 °C 34246 hPa ENE 20.9 km/h 20.9 km/h 54 % 0 mm 0.0 W/m2 CLR
21:18 -7.6 °C -12.7 °C 34235.8 hPa East 18.2 km/h 18.2 km/h 55 % 0 mm 0.0 W/m2 CLR
21:23 -7.6 °C -12.7 °C 34235.8 hPa Calm     55 % 0 mm 0.0 W/m2 CLR
21:28 -7.6 °C -12.9 °C 34235.8 hPa Calm     54 % 0 mm 0.0 W/m2 CLR
21:33 -7.6 °C -12.7 °C 34235.8 hPa Calm     55 % 0 mm 0.0 W/m2 CLR
21:38 -7.3 °C -12.4 °C 34235.8 hPa Calm     55 % 0 mm 0.0 W/m2 CLR
21:43 -7.3 °C -12.3 °C 34235.8 hPa Calm     56 % 0 mm 0.0 W/m2 CLR
21:48 -7.6 °C -12.9 °C 34246 hPa Calm     54 % 0 mm 0.0 W/m2 CLR
21:53 -7.6 °C -13.3 °C 34246 hPa Calm     51 % 0 mm 0.0 W/m2 CLR
21:58 -7.9 °C -13.2 °C 34246 hPa Calm     54 % 0 mm 0.0 W/m2 CLR
22:04 -7.6 °C -12.7 °C 34246 hPa Calm     55 % 0 mm 0.0 W/m2 CLR
22:09 -7.6 °C -12.7 °C 34235.8 hPa Calm     55 % 0 mm 0.0 W/m2 CLR
22:14 -7.3 °C -12.3 °C 34246 hPa Calm     56 % 0 mm 0.0 W/m2 CLR
22:19 -7.6 °C -12 °C 34246 hPa Calm     60 % 0 mm 0.0 W/m2 CLR
22:24 -7.6 °C -12.1 °C 34246 hPa Calm     59 % 0 mm 0.0 W/m2 CLR
22:29 -7.6 °C -12.3 °C 34246 hPa Calm     58 % 0 mm 0.0 W/m2 CLR
22:34 -7.6 °C -12 °C 34246 hPa Calm     60 % 0 mm 0.0 W/m2 CLR
22:39 -7.9 °C -11.6 °C 34246 hPa Calm     65 % 0 mm 0.0 W/m2 CLR
22:44 -8.2 °C -11.9 °C 34246 hPa Calm     65 % 0 mm 0.0 W/m2 CLR
22:49 -8.2 °C -12.2 °C 34246 hPa NW 11.9 km/h 11.9 km/h 63 % 0 mm 0.0 W/m2 CLR
22:54 -8.5 °C -12.2 °C 34246 hPa NW 9 km/h 9 km/h 65 % 0 mm 0.0 W/m2 CLR
22:59 -8.8 °C -12.5 °C 34246 hPa Calm     65 % 0 mm 0.0 W/m2 CLR
23:04 -8.8 °C -12.5 °C 34246 hPa Calm     65 % 0 mm 0.0 W/m2 CLR
23:09 -8.8 °C -12.3 °C 34246 hPa Calm     66 % 0 mm 0.0 W/m2 CLR
23:14 -9.1 °C -12.4 °C 34246 hPa Calm     68 % 0 mm 0.0 W/m2 CLR
23:19 -9.1 °C -12.6 °C 34246 hPa Calm     67 % 0 mm 0.0 W/m2 CLR
23:24 -9.1 °C -12.7 °C 34235.8 hPa Calm     66 % 0 mm 0.0 W/m2 CLR
23:29 -9.1 °C -12.6 °C 34235.8 hPa Calm     67 % 0 mm 0.0 W/m2 CLR
23:34 -9.1 °C -12.4 °C 34235.8 hPa Calm     68 % 0 mm 0.0 W/m2 CLR
23:35 -9.1 °C -12.4 °C 34235.8 hPa Calm     68 % 0 mm 0.0 W/m2 CLR
23:40 -9.1 °C -12.4 °C 34222.3 hPa Calm     68 % 0 mm 0.0 W/m2 CLR
23:45 -9.1 °C -12.3 °C 34222.3 hPa Calm     69 % 0 mm 0.0 W/m2 CLR
23:50 -9.1 °C -12.1 °C 34222.3 hPa Calm     71 % 0 mm 0.0 W/m2 CLR
23:55 -9.4 °C -12.1 °C 34222.3 hPa Calm   0.3 km/h 73 % 0 mm 0.0 W/m2 CLR
Lo Temps de Massalio
Compliments of Weather Underground - 1.25 mb